Weather observations for the past three days for
Rogers City, Presque Isle County Airport
Imperial (Metric)
Date Time (edt) Wind (mph) Vis. (mi.) Weather Sky Cond. Temperature (ºF) Relative Humidity Wind Chill (°F) Heat Index (°F) Pressure Precipitation (in)
Air Dwpt 6 hour altimeter (in) sea level (mb) 1 hr 3 hr 6 hr
Max. Min.
06 17:15 NE 5 10.00 Fair CLR 71.6 57.2 61% 30.14 0.0
06 16:55 NE 5 10.00 Fair CLR 71.6 55.4 57% 30.14 0.0
06 16:35 NE 3 10.00 Fair CLR 71.6 55.4 57% 30.14 0.0
06 16:15 NE 5 10.00 Fair CLR 71.6 57.2 61% 30.14 0.0
06 15:55 Vrbl 5 10.00 Fair CLR 71.6 59 65% 30.14 0.0
06 15:35 Vrbl 5 10.00 Fair CLR 71.6 59 65% 30.15 0.0
06 15:15 NE 5 10.00 Fair CLR 71.6 59 65% 30.15 0.0
06 14:55 NE 5 10.00 Fair CLR 71.6 60.8 69% 30.16 0.0
06 14:35 N 6 10.00 Fair CLR 69.8 60.8 73% 30.16 0.0
06 14:15 N 6 10.00 Fair CLR 71.6 60.8 69% 30.16 0.0
06 13:55 NE 6 10.00 Fair CLR 71.6 59 70.9 56.7 65% 30.17 0.0
06 13:35 N 6 10.00 Fair CLR 69.8 60.8 73% 30.17 0.0
06 13:15 N 6 10.00 Fair CLR 69.8 60.8 73% 30.18 0.0
06 12:55 NE 5 10.00 Fair CLR 69.8 60.8 73% 30.18 0.0
06 12:35 N 6 10.00 Fair CLR 69.8 60.8 73% 30.18 0.0
06 12:15 Vrbl 6 10.00 Fair CLR 69.8 60.8 73% 30.18 0.0
06 11:55 Vrbl 6 10.00 Fair CLR 68 60.8 78% 30.18 0.0
06 11:35 NE 5 10.00 Fair CLR 68 62.6 83% 30.18 0.0
06 11:15 N 5 10.00 Fair CLR 68 60.8 78% 30.18 0.0
06 10:55 N 5 10.00 A Few Clouds FEW008 68 62.6 83% 30.17 0.0
06 10:35 Vrbl 5 10.00 Fair CLR 66.2 62.6 88% 30.17 0.0
06 10:15 N 6 10.00 A Few Clouds FEW009 66.2 62.6 88% 30.17 0.0
06 09:55 Vrbl 3 10.00 Fair CLR 66.2 62.6 88% 30.16 0.0
06 09:35 N 5 10.00 A Few Clouds FEW047 66.2 62.6 88% 30.16 0.0
06 09:15 Vrbl 1 10.00 Partly Cloudy SCT049 64.4 62.6 94% 30.16 0.0
06 08:55 Vrbl 1 10.00 Partly Cloudy SCT049 62.6 60.8 94% 30.16 0.0
06 08:35 W 3 10.00 A Few Clouds FEW049 60.8 59 94% 30.16 0.0
06 08:15 Vrbl 2 10.00 A Few Clouds FEW050 59 59 100% 30.15 0.0
06 07:55 W 2 10.00 Fair CLR 57.2 57.2 56.7 51.1 100% 30.15 0.0
06 07:35 W 3 10.00 Fair CLR 53.6 53.6 100% 30.14 0.0
06 07:15 W 2 1.00 Fog/Mist CLR 53.6 51.8 94% 30.14 0.0
06 06:55 W 3 10.00 A Few Clouds FEW050 53.6 53.6 100% 30.14 0.0
06 06:35 W 3 10.00 Mostly Cloudy BKN050 55.4 53.6 94% 30.13 0.0
06 06:15 W 2 10.00 Partly Cloudy SCT050 55.4 53.6 94% 30.13 0.0
06 05:55 SW 2 10.00 Mostly Cloudy BKN050 53.6 53.6 100% 30.13 0.0
06 05:35 W 2 10.00 Partly Cloudy SCT050 53.6 51.8 94% 30.12 0.0
06 05:15 SW 3 3.00 Fog/Mist FEW050 51.8 50 94% 30.12 0.0
06 04:55 SW 2 10.00 A Few Clouds FEW050 51.8 51.8 100% 30.11 0.0
06 04:35 SW 5 10.00 Fair CLR 51.8 51.8 100% 30.11 0.0
06 04:15 W 2 10.00 Fair CLR 53.6 51.8 94% 30.1 0.0
06 03:55 W 3 10.00 Fair CLR 53.6 51.8 94% 30.1 0.0
06 03:35 W 2 10.00 Fair CLR 55.4 53.6 94% 30.1 0.0
06 03:15 W 3 10.00 Fair CLR 55.4 53.6 94% 30.1 0.0
06 02:55 W 3 10.00 Fair CLR 55.4 53.6 94% 30.1 0.0
06 02:35 W 2 10.00 Fair CLR 55.4 53.6 94% 30.1 0.0
06 02:15 W 2 10.00 Fair CLR 55.4 51.8 88% 30.1 0.0
06 01:55 W 3 10.00 Fair CLR 55.4 51.8 64.2 51.8 88% 30.1 0.0
06 01:35 W 5 10.00 Fair CLR 57.2 53.6 88% 30.1 0.0
06 01:15 W 2 10.00 Fair CLR 51.8 50 94% 30.09 0.0
06 00:55 W 3 10.00 Fair CLR 53.6 50 88% 30.09 0.0
06 00:35 W 2 10.00 Fair CLR 53.6 50 88% 30.09 0.0
06 00:15 W 2 10.00 Fair CLR 55.4 51.8 88% 30.09 0.0
05 23:55 W 3 10.00 Fair CLR 55.4 51.8 88% 30.08 0.0
05 23:35 W 5 10.00 Fair CLR 55.4 51.8 88% 30.08 0.0
05 23:15 W 3 10.00 Fair CLR 55.4 51.8 88% 30.08 0.0
05 22:55 Vrbl 3 10.00 Fair CLR 55.4 53.6 94% 30.07 0.0
05 22:35 W 5 10.00 Fair CLR 57.2 53.6 88% 30.07 0.0
05 22:15 W 2 10.00 Fair CLR 55.4 51.8 88% 30.07 0.0
05 21:55 SW 3 10.00 Fair CLR 57.2 53.6 88% 30.07 0.0
05 21:35 SW 3 10.00 Fair CLR 55.4 53.6 94% 30.07 0.0
05 21:15 SW 3 10.00 Fair CLR 57.2 53.6 88% 30.06 0.0
05 20:55 SW 3 10.00 Fair CLR 57.2 53.6 88% 30.06 0.0
05 20:35 W 3 10.00 Fair CLR 59 55.4 88% 30.06 0.0
05 20:15 W 3 10.00 Fair CLR 60.8 55.4 83% 30.05 0.0
05 19:55 W 2 10.00 Fair CLR 64.4 55.4 72 64.2 73% 30.05 0.0
05 19:35 SW 1 10.00 Fair CLR 68 57.2 69% 30.06 0.0
05 19:15 Calm 10.00 Fair CLR 69.8 55.4 60% 30.06 0.0
05 18:55 NE 2 10.00 Fair CLR 71.6 51.8 50% 30.06 0.0
05 18:35 Vrbl 1 10.00 Fair CLR 71.6 51.8 50% 30.06 0.0
05 18:15 NE 3 10.00 Fair CLR 71.6 51.8 50% 30.06 0.0
05 17:55 Vrbl 1 10.00 Fair CLR 71.6 53.6 53% 30.06 0.0
05 17:35 N 3 10.00 Fair CLR 71.6 51.8 50% 30.06 0.0
05 17:15 Vrbl 3 10.00 Fair CLR 71.6 53.6 53% 30.06 0.0
05 16:55 Vrbl 2 10.00 Fair CLR 71.6 51.8 50% 30.06 0.0
05 16:35 NW 3 10.00 Fair CLR 71.6 53.6 53% 30.05 0.0
05 16:15 E 5 10.00 Fair CLR 71.6 53.6 53% 30.05 0.0
05 15:55 NE 5 10.00 Fair CLR 71.6 51.8 50% 30.06 0.0
05 13:55 N 8 10.00 Fair CLR 69.8 60.8 70.5 55.6 73% 30.08 0.0
05 13:35 Vrbl 6 10.00 Fair CLR 69.8 60.8 73% 30.08 0.0
05 13:15 NE 7 10.00 Fair CLR 69.8 60.8 73% 30.07 0.0
05 12:55 NE 6 10.00 Fair CLR 69.8 60.8 73% 30.08 0.0
05 12:35 NE 5 10.00 Fair CLR 69.8 60.8 73% 30.08 0.0
05 12:15 E 7 10.00 Fair CLR 69.8 60.8 73% 30.08 0.0
05 11:35 NE 7 10.00 Fair CLR 68 60.8 78% 30.07 0.0
05 11:15 NE 7 10.00 Fair CLR 68 60.8 78% 30.07 0.0
05 10:55 NE 9 10.00 Fair CLR 68 62.6 83% 30.06 0.0
05 10:35 E 7 10.00 Fair CLR 68 62.6 83% 30.06 0.0
05 10:15 E 7 10.00 Fair CLR 68 62.6 83% 30.05 0.0
05 09:35 E 8 10.00 Fair CLR 66.2 64.4 94% 30.05 0.0
05 09:15 E 6 10.00 Fair CLR 66.2 64.4 94% 30.06 0.0
05 08:55 Vrbl 3 10.00 Fair CLR 64.4 64.4 100% 30.05 0.0
05 08:35 NE 5 10.00 Fair CLR 64.4 64.4 100% 30.05 0.0
05 08:15 N 1 10.00 Fair CLR 60.8 60.8 100% 30.04 0.0
05 07:55 Calm 10.00 Fair CLR 57.2 57.2 59.5 52.9 100% 30.04 0.0
05 07:35 W 2 10.00 Fair CLR 53.6 53.6 100% 30.04 0.0
05 07:15 SW 2 0.75 Fog/Mist VV005 53.6 53.6 100% 30.04 0.0
05 06:55 W 3 0.15 Fog VV000 55.4 53.6 94% 30.03 0.0
05 06:35 W 2 8.00 Fair CLR 53.6 53.6 100% 30.03 0.0
05 06:15 W 2 0.50 Fog VV005 53.6 53.6 100% 30.03 0.0
05 05:55 W 2 1.00 Fog/Mist BKN001 55.4 55.4 100% 30.03 0.0
05 05:35 W 2 0.75 Fog/Mist BKN001 57.2 55.4 94% 30.02 0.0
05 05:15 W 3 0.25 Fog VV002 57.2 57.2 100% 30.02 0.0
05 04:55 W 2 0.50 Fog BKN001 55.4 55.4 100% 30.02 0.0
05 04:35 W 2 10.00 Mostly Cloudy BKN001 55.4 55.4 100% 30.02 0.0
05 04:15 W 1 10.00 Fair CLR 53.6 53.6 100% 30.02 0.0
05 03:55 SW 2 2.00 Fog/Mist CLR 55.4 55.4 100% 30.01 0.0
05 03:35 W 3 9.00 Fair CLR 57.2 55.4 94% 30.01 0.0
05 03:15 SW 1 0.25 Fog VV002 57.2 57.2 100% 30.01 0.0
05 02:55 SW 2 0.15 Fog VV000 57.2 57.2 100% 30.01 0.0
05 02:35 W 3 0.75 Fog/Mist VV005 59 59 100% 30.01 0.0
05 02:15 W 2 0.15 Fog VV000 59 59 100% 30.01 0.0
05 01:55 W 2 0.25 Fog VV002 59 59 67.3 58.5 100% 30.01 0.0
05 01:35 W 3 0.15 Fog BKN075 59 59 100% 30.01 0.0
05 01:15 W 2 0.25 Fog OVC075 59 59 100% 30.01 0.0
05 00:55 Calm 0.25 Fog OVC075 59 59 100% 30.01 0.0
05 00:35 Calm 0.25 Fog BKN001 OVC075 62.6 60.8 94% 30.01 0.0
05 00:15 E 2 2.50 Fog/Mist SCT001 OVC075 62.6 60.8 94% 30.01 0.0
04 23:55 E 1 10.00 Overcast FEW001 OVC075 60.8 60.8 100% 30.02 0.0
04 23:35 NE 1 0.25 Fog BKN001 OVC075 60.8 59 94% 30.02 0.0
04 23:15 Calm 1.00 Fog/Mist FEW001 BKN075 60.8 60.8 100% 30.02 0.0
04 22:55 N 2 0.75 Fog/Mist OVC075 62.6 62.6 100% 30.03 0.0
04 22:35 SE 2 4.00 Fog/Mist FEW002 BKN075 OVC100 62.6 62.6 100% 30.02 0.0
04 22:15 E 2 8.00 Overcast BKN002 BKN075 OVC110 64.4 62.6 94% 30.02 0.0
04 21:55 NE 1 10.00 Overcast BKN075 BKN085 OVC110 64.4 64.4 100% 30.02 0.0
04 21:35 NE 5 10.00 Overcast OVC075 64.4 62.6 94% 30.02 0.0
04 21:15 NE 2 10.00 Overcast OVC085 64.4 62.6 94% 30.02 0.0
04 20:55 N 1 10.00 Overcast OVC085 64.4 62.6 94% 30.01 0.0
04 20:35 W 1 10.00 Overcast BKN080 OVC110 64.4 62.6 94% 30.01 0.0
04 20:15 SW 1 10.00 Overcast BKN080 OVC095 66.2 62.6 88% 30 0.0
04 19:55 Calm 10.00 Overcast BKN070 OVC100 66.2 64.4 69.4 66.7 94% 30 0.0
04 19:35 Vrbl 1 10.00 Overcast SCT070 BKN090 OVC120 68 64.4 88% 30 0.0
04 19:15 W 1 10.00 Overcast OVC070 68 64.4 88% 29.99 0.0
04 18:55 NE 2 10.00 Overcast OVC070 68 64.4 88% 29.99 0.0
04 18:35 SE 2 10.00 Overcast OVC070 69.8 62.6 78% 29.99 0.0
04 18:15 E 3 10.00 Overcast OVC070 68 64.4 88% 29.99 0.0
04 17:55 Vrbl 2 10.00 Overcast OVC070 68 64.4 88% 29.99 0.0
04 17:35 Vrbl 3 10.00 Overcast FEW048 OVC070 69.8 62.6 78% 29.99 0.0
04 17:15 E 3 10.00 Overcast OVC070 68 62.6 83% 29.99 0.0
04 16:55 E 6 10.00 Overcast OVC070 69.8 62.6 78% 29.99 0.0
04 16:35 E 6 10.00 Overcast OVC070 68 62.6 83% 29.99 0.0
04 16:15 E 7 10.00 Overcast BKN070 OVC120 68 62.6 83% 29.99 0.0
04 15:55 E 7 10.00 Overcast BKN050 OVC070 68 62.6 83% 29.99 0.0
04 15:35 E 7 10.00 Overcast OVC050 68 64.4 88% 29.99 0.0
04 15:15 E 6 10.00 Overcast OVC050 68 64.4 88% 30 0.0
04 14:55 E 6 10.00 Overcast BKN048 OVC050 68 62.6 83% 29.99 0.0
04 14:35 E 5 10.00 Overcast OVC050 68 62.6 83% 30 0.0
04 14:15 E 5 10.00 Overcast OVC046 66.2 62.6 88% 30.01 0.0
04 13:55 NE 3 10.00 Overcast FEW012 OVC046 68 62.6 68.7 59.7 83% 30 0.0
04 13:35 SE 5 10.00 Overcast FEW010 OVC044 68 62.6 83% 30.01 0.0
04 13:15 E 9 10.00 Overcast OVC046 68 64.4 88% 29.99 0.0
04 12:55 E 6 10.00 Overcast OVC048 66.2 62.6 88% 30 0.0
04 12:35 E 5 10.00 Overcast OVC048 66.2 62.6 88% 30.01 0.0
04 12:15 NE 6 10.00 Overcast OVC050 66.2 64.4 94% 30.01 0.0
04 11:55 NE 6 10.00 Overcast OVC050 66.2 64.4 94% 30.02 0.0
04 11:35 E 3 10.00 Overcast OVC050 66.2 62.6 88% 30.01 0.0
04 11:15 SE 3 10.00 Overcast OVC050 66.2 62.6 88% 30.01 0.0
04 10:55 Calm 10.00 Overcast BKN050 BKN070 OVC085 66.2 62.6 88% 30.02 0.0
04 10:35 S 2 10.00 Overcast FEW046 BKN080 OVC120 64.4 62.6 94% 30.02 0.0
04 10:15 Vrbl 2 10.00 Overcast SCT045 BKN090 OVC110 64.4 62.6 94% 30.02 0.0
04 09:55 SE 5 10.00 Overcast SCT070 OVC100 64.4 62.6 94% 30 0.0 0.01
04 09:35 S 6 10.00 Light Rain SCT060 BKN070 OVC100 64.4 62.6 94% 29.99 0.0
04 09:15 Calm 10.00 Overcast SCT060 BKN090 OVC110 64.4 62.6 94% 30 0.0
04 08:55 E 3 10.00 Mostly Cloudy BKN110 64.4 62.6 94% 29.99 0.0 0.01
04 08:35 SE 3 10.00 Partly Cloudy SCT110 62.6 62.6 100% 29.99 0.0
04 08:15 S 3 10.00 Light Rain FEW035 BKN095 OVC120 60.8 60.8 100% 30 0.0
04 07:55 W 5 8.00 Light Rain SCT070 OVC095 60.8 59 61.3 53.8 94% 30.01 0.0 0.01
04 07:35 W 3 10.00 Overcast BKN070 OVC090 59 59 100% 30.01 0.0
04 07:15 W 2 10.00 Overcast SCT070 OVC090 57.2 57.2 100% 30 0.0
04 06:55 W 2 10.00 Mostly Cloudy BKN100 57.2 55.4 94% 29.99 0.0
04 06:35 SW 1 10.00 Partly Cloudy SCT110 57.2 55.4 94% 29.98 0.0
04 06:15 SW 3 10.00 Fair CLR 57.2 55.4 94% 29.99 0.0
04 05:55 SW 3 10.00 Fair CLR 55.4 55.4 100% 29.98 0.0
04 05:35 S 2 10.00 Fair CLR 55.4 53.6 94% 29.98 0.0
04 05:15 SW 1 10.00 Fair CLR 55.4 53.6 94% 29.97 0.0
04 04:55 W 2 10.00 Fair CLR 55.4 53.6 94% 29.97 0.0
04 04:35 NW 1 10.00 Fair CLR 55.4 53.6 94% 29.98 0.0
04 04:15 S 1 10.00 Fair CLR 55.4 53.6 94% 29.97 0.0
04 03:55 W 1 10.00 Fair CLR 55.4 55.4 100% 29.99 0.0
04 03:35 SW 1 10.00 Fair CLR 55.4 53.6 94% 29.97 0.0
04 03:15 Calm 10.00 Fair CLR 57.2 55.4 94% 29.97 0.0
04 02:55 NW 1 10.00 Fair CLR 57.2 55.4 94% 29.98 0.0
04 02:35 Vrbl 2 10.00 Fair CLR 59 57.2 94% 29.99 0.0
04 02:15 SW 1 10.00 Fair CLR 59 57.2 94% 29.99 0.0
04 01:55 SW 2 10.00 Fair CLR 59 57.2 66.6 58.1 94% 29.99 0.0
04 01:35 SW 3 10.00 Fair CLR 60.8 57.2 88% 29.99 0.0
04 01:15 SW 6 10.00 Fair CLR 60.8 59 94% 30 0.0
04 00:55 SW 3 10.00 Fair CLR 60.8 57.2 88% 30 0.0
04 00:35 W 3 10.00 Fair CLR 60.8 57.2 88% 29.99 0.0
04 00:15 SW 5 10.00 Fair CLR 62.6 59 88% 29.99 0.0
03 23:55 W 2 10.00 Fair CLR 62.6 57.2 83% 29.99 0.0
03 23:35 SW 6 10.00 Fair CLR 64.4 59 83% 29.99 0.0
03 23:15 SW 5 10.00 Fair CLR 62.6 55.4 77% 29.99 0.0
03 22:55 SW 5 10.00 Fair CLR 62.6 55.4 77% 29.98 0.0
03 22:35 SW 3 10.00 Fair CLR 60.8 53.6 77% 29.99 0.0
03 22:15 SW 2 10.00 Fair CLR 60.8 55.4 83% 29.99 0.0
03 21:55 SW 3 10.00 Fair CLR 64.4 55.4 73% 29.98 0.0
03 21:35 SW 6 10.00 Fair CLR 62.6 55.4 77% 29.97 0.0
03 21:15 SW 2 10.00 Fair CLR 62.6 57.2 83% 29.97 0.0
03 20:55 SW 1 10.00 Fair CLR 62.6 57.2 83% 29.97 0.0
03 20:35 SW 3 10.00 Fair CLR 60.8 57.2 88% 29.96 0.0
03 20:15 W 2 10.00 Fair CLR 62.6 57.2 83% 29.96 0.0
03 19:55 SW 2 10.00 Fair CLR 64.4 57.2 73.8 67.1 78% 29.96 0.0
03 19:35 SW 1 10.00 Fair CLR 69.8 57.2 64% 29.95 0.0
03 19:15 Calm 8.00 Fair CLR 69.8 57.2 64% 29.94 0.0
03 18:55 Vrbl 1 10.00 Fair CLR 71.6 57.2 61% 29.93 0.0
03 18:35 Vrbl 3 10.00 Fair CLR 71.6 57.2 61% 29.93 0.0
03 18:15 Vrbl 2 10.00 Fair CLR 71.6 57.2 61% 29.92 0.0
03 17:55 NE 5 10.00 Fair CLR 71.6 55.4 57% 29.92 0.0
03 17:35 NE 3 10.00 Fair CLR 71.6 55.4 57% 29.93 0.0
Date Time (edt) Wind (mph) Vis. (mi.) Weather Sky Cond. Air Dwpt Max. Min. Relative Humidity Wind Chill (°F) Heat Index (°F) altimeter (in) sea level (mb) 1 hr 3 hr 6 hr
6 hour
Temperature (ºF) Pressure Precipitation (in)